Time;durP1;ratioP1;P1;durP2;ratioP2;P2;SDS_P1;SDS_P2;PMS_P1;PMS_P2;Temp;Humidity;BMP_temperature;BMP_pressure;BME280_temperature;BME280_humidity;BME280_pressure;Samples;Min_cycle;Max_cycle;Signal;HPM_P1;HPM_P2
2023/07/12 00:02:26;;;;;;;;;;;;;;;;;;2198593;67;2206;-20
2023/07/12 00:04:57;;;;;;;;;;;;;;;;;;2197776;59;1664;-21
2023/07/12 00:07:27;;;;;;;;;;;;;;;;;;2198342;59;2691;-20
2023/07/12 00:09:57;;;;;;;;;;;;;;;;;;2198313;67;1783;-22
2023/07/12 00:12:27;;;;;;;;;;;;;;;;;;2198515;59;2537;-20
2023/07/12 00:14:57;;;;;;;;;;;;;;;;;;2198665;67;2870;-21
2023/07/12 00:17:28;;;;;;;;;;;;;;;;;;2197854;59;1888;-22
2023/07/12 00:19:58;;;;;;;;;;;;;;;;;;2198370;67;2490;-21
2023/07/12 00:22:28;;;;;;;;;;;;;;;;;;2197411;67;2495;-21
2023/07/12 00:24:58;;;;;;;;;;;;;;;;;;2198264;67;1770;-21
2023/07/12 00:27:28;;;;;;;;;;;;;;;;;;2197881;67;1858;-20
2023/07/12 00:29:59;;;;;;;;;;;;;;;;;;2195948;59;1895;-21
2023/07/12 00:32:29;;;;;;;;;;;;;;;;;;2198054;67;1825;-20
2023/07/12 00:34:59;;;;;;;;;;;;;;;;;;2198784;67;1967;-21
2023/07/12 00:37:29;;;;;;;;;;;;;;;;;;2198033;67;2599;-20
2023/07/12 00:39:59;;;;;;;;;;;;;;;;;;2194666;67;1936;-21
2023/07/12 00:42:37;;;;;;;;;;;;;;;;;;2197760;67;2505;-20
2023/07/12 00:45:10;;;;;;;;;;;;;;;;;;2198418;67;2716;-21
2023/07/12 00:47:41;;;;;;;;;;;;;;;;;;2198349;59;2022;-20
2023/07/12 00:50:17;;;;;;;;;;;;;;;;;;2197834;59;2248;-21
2023/07/12 00:52:47;;;;;;;;;;;;;;;;;;2198078;60;2413;-20
2023/07/12 00:55:47;;;;;;;;;;;;;;;;;;2197531;59;2389;-20
2023/07/12 00:58:17;;;;;;;;;;;;;;;;;;2197463;67;2035;-19
2023/07/12 01:00:47;;;;;;;;;;;;;;;;;;2198397;59;2383;-20
2023/07/12 01:03:20;;;;;;;;;;;;;;;;;;2197860;67;1638;-20
2023/07/12 01:05:51;;;;;;;;;;;;;;;;;;2198258;59;2024;-20
2023/07/12 01:08:21;;;;;;;;;;;;;;;;;;2197837;67;1787;-21
2023/07/12 01:10:52;;;;;;;;;;;;;;;;;;2198307;67;2490;-20
2023/07/12 01:13:23;;;;;;;;;;;;;;;;;;2197579;59;1922;-20
2023/07/12 01:15:53;;;;;;;;;;;;;;;;;;2198317;67;1728;-20
2023/07/12 01:18:23;;;;;;;;;;;;;;;;;;2197554;67;1871;-20
2023/07/12 01:21:06;;;;;;;;;;;;;;;;;;2197660;67;2062;-21
2023/07/12 01:23:38;;;;;;;;;;;;;;;;;;2197809;67;1839;-20
2023/07/12 01:26:14;;;;;;;;;;;;;;;;;;2196968;67;2348;-21
2023/07/12 01:28:46;;;;;;;;;;;;;;;;;;2198098;67;1717;-19
2023/07/12 01:31:16;;;;;;;;;;;;;;;;;;2196944;59;2391;-20
2023/07/12 01:33:47;;;;;;;;;;;;;;;;;;2198740;67;1624;-20
2023/07/12 01:36:17;;;;;;;;;;;;;;;;;;2197123;67;1812;-20
2023/07/12 01:38:48;;;;;;;;;;;;;;;;;;2198247;67;2425;-20
2023/07/12 01:41:22;;;;;;;;;;;;;;;;;;2193308;67;1945;-20
2023/07/12 01:43:53;;;;;;;;;;;;;;;;;;2196637;67;2358;-20
2023/07/12 01:46:23;;;;;;;;;;;;;;;;;;2197753;59;2419;-20
2023/07/12 01:48:54;;;;;;;;;;;;;;;;;;2198220;59;1751;-21
2023/07/12 01:51:26;;;;;;;;;;;;;;;;;;2197709;59;1632;-20
2023/07/12 01:53:56;;;;;;;;;;;;;;;;;;2197921;67;2250;-20
2023/07/12 01:56:26;;;;;;;;;;;;;;;;;;2197919;59;1794;-20
2023/07/12 01:58:57;;;;;;;;;;;;;;;;;;2195874;59;2926;-20
2023/07/12 02:01:27;;;;;;;;;;;;;;;;;;2197520;67;1977;-20
2023/07/12 02:03:57;;;;;;;;;;;;;;;;;;2198101;59;1795;-20
2023/07/12 02:06:27;;;;;;;;;;;;;;;;;;2197662;67;1841;-20
2023/07/12 02:08:58;;;;;;;;;;;;;;;;;;2197202;67;2700;-19
2023/07/12 02:11:28;;;;;;;;;;;;;;;;;;2198120;59;2285;-20
2023/07/12 02:13:58;;;;;;;;;;;;;;;;;;2197597;67;2385;-20
2023/07/12 02:16:31;;;;;;;;;;;;;;;;;;2194549;67;2917;-19
2023/07/12 02:19:02;;;;;;;;;;;;;;;;;;2198309;67;2387;-20
2023/07/12 02:21:32;;;;;;;;;;;;;;;;;;2197831;67;1491;-20
2023/07/12 02:24:02;;;;;;;;;;;;;;;;;;2198154;67;1738;-19
2023/07/12 02:26:34;;;;;;;;;;;;;;;;;;2194455;67;2427;-20
2023/07/12 02:29:04;;;;;;;;;;;;;;;;;;2198159;67;1958;-20
2023/07/12 02:31:34;;;;;;;;;;;;;;;;;;2197873;67;2162;-20
2023/07/12 02:34:04;;;;;;;;;;;;;;;;;;2197740;59;1841;-20
2023/07/12 02:36:35;;;;;;;;;;;;;;;;;;2197800;67;2569;-20
2023/07/12 02:39:05;;;;;;;;;;;;;;;;;;2197390;67;1937;-20
2023/07/12 02:41:35;;;;;;;;;;;;;;;;;;2194224;67;1775;-20
2023/07/12 02:44:05;;;;;;;;;;;;;;;;;;2197328;67;2363;-19
2023/07/12 02:46:35;;;;;;;;;;;;;;;;;;2197754;59;2548;-20
2023/07/12 02:49:06;;;;;;;;;;;;;;;;;;2198434;59;1783;-18
2023/07/12 02:51:39;;;;;;;;;;;;;;;;;;2193610;59;2493;-19
2023/07/12 02:54:10;;;;;;;;;;;;;;;;;;2197819;67;2404;-18
2023/07/12 02:56:40;;;;;;;;;;;;;;;;;;2194403;59;1938;-19
2023/07/12 02:59:11;;;;;;;;;;;;;;;;;;2197140;59;2622;-19
2023/07/12 03:01:41;;;;;;;;;;;;;;;;;;2197887;67;1906;-18
2023/07/12 03:04:11;;;;;;;;;;;;;;;;;;2197478;59;2302;-18
2023/07/12 03:06:41;;;;;;;;;;;;;;;;;;2198342;67;1783;-19
2023/07/12 03:09:12;;;;;;;;;;;;;;;;;;2197515;59;2237;-18
2023/07/12 03:11:51;;;;;;;;;;;;;;;;;;2197879;59;2083;-19
2023/07/12 03:14:22;;;;;;;;;;;;;;;;;;2197593;67;1821;-19
2023/07/12 03:16:53;;;;;;;;;;;;;;;;;;2197735;59;1761;-19
2023/07/12 03:19:23;;;;;;;;;;;;;;;;;;2194454;67;1945;-18
2023/07/12 03:21:53;;;;;;;;;;;;;;;;;;2197334;67;2992;-19
2023/07/12 03:24:23;;;;;;;;;;;;;;;;;;2197684;67;2833;-19
2023/07/12 03:26:54;;;;;;;;;;;;;;;;;;2196769;67;3231;-19
2023/07/12 03:29:24;;;;;;;;;;;;;;;;;;2197789;67;2005;-19
2023/07/12 03:31:54;;;;;;;;;;;;;;;;;;2197999;67;2499;-19
2023/07/12 03:34:24;;;;;;;;;;;;;;;;;;2197609;67;2782;-18
2023/07/12 03:36:54;;;;;;;;;;;;;;;;;;2197861;67;2746;-19
2023/07/12 03:39:25;;;;;;;;;;;;;;;;;;2197612;67;1964;-19
2023/07/12 03:41:55;;;;;;;;;;;;;;;;;;2197594;67;2399;-19
2023/07/12 03:44:25;;;;;;;;;;;;;;;;;;2197471;67;2565;-19
2023/07/12 03:46:55;;;;;;;;;;;;;;;;;;2197787;67;2480;-19
2023/07/12 03:49:25;;;;;;;;;;;;;;;;;;2196652;59;2028;-19
2023/07/12 03:51:56;;;;;;;;;;;;;;;;;;2198011;67;1966;-19
2023/07/12 03:54:26;;;;;;;;;;;;;;;;;;2197087;67;1707;-19
2023/07/12 03:56:56;;;;;;;;;;;;;;;;;;2198012;59;1991;-19
2023/07/12 03:59:29;;;;;;;;;;;;;;;;;;2197554;59;2518;-19
2023/07/12 04:01:59;;;;;;;;;;;;;;;;;;2197470;67;1782;-18
2023/07/12 04:04:30;;;;;;;;;;;;;;;;;;2197459;59;1841;-19
2023/07/12 04:07:00;;;;;;;;;;;;;;;;;;2196849;67;1692;-18
2023/07/12 04:09:31;;;;;;;;;;;;;;;;;;2197463;67;2498;-19
2023/07/12 04:12:01;;;;;;;;;;;;;;;;;;2197444;59;1872;-19
2023/07/12 04:14:31;;;;;;;;;;;;;;;;;;2197978;67;2583;-19
2023/07/12 04:17:01;;;;;;;;;;;;;;;;;;2198029;67;1772;-19
2023/07/12 04:19:31;;;;;;;;;;;;;;;;;;2198215;67;1991;-19
2023/07/12 04:22:02;;;;;;;;;;;;;;;;;;2197860;67;1784;-18
2023/07/12 04:24:32;;;;;;;;;;;;;;;;;;2198340;67;1724;-19
2023/07/12 04:27:02;;;;;;;;;;;;;;;;;;2198164;67;1789;-19
2023/07/12 04:29:33;;;;;;;;;;;;;;;;;;2197896;67;2026;-19
2023/07/12 04:32:03;;;;;;;;;;;;;;;;;;2197122;67;1801;-19
2023/07/12 04:34:33;;;;;;;;;;;;;;;;;;2198321;67;3022;-19
2023/07/12 04:37:04;;;;;;;;;;;;;;;;;;2198158;67;2266;-19
2023/07/12 04:39:34;;;;;;;;;;;;;;;;;;2200033;67;2013;-19
2023/07/12 04:42:05;;;;;;;;;;;;;;;;;;2197811;67;1998;-18
2023/07/12 04:44:36;;;;;;;;;;;;;;;;;;2197973;67;2230;-19
2023/07/12 04:47:06;;;;;;;;;;;;;;;;;;2197941;59;1924;-19
2023/07/12 04:49:36;;;;;;;;;;;;;;;;;;2197366;67;1811;-20
2023/07/12 04:52:07;;;;;;;;;;;;;;;;;;2197598;67;2313;-20
2023/07/12 04:54:38;;;;;;;;;;;;;;;;;;2198494;67;2419;-20
2023/07/12 04:57:09;;;;;;;;;;;;;;;;;;2197672;59;1787;-21
2023/07/12 04:59:39;;;;;;;;;;;;;;;;;;2197798;59;2276;-20
2023/07/12 05:02:09;;;;;;;;;;;;;;;;;;2197931;67;1973;-21
2023/07/12 05:04:40;;;;;;;;;;;;;;;;;;2198027;59;1847;-21
2023/07/12 05:07:10;;;;;;;;;;;;;;;;;;2197855;67;1963;-21
2023/07/12 05:09:40;;;;;;;;;;;;;;;;;;2198110;67;1755;-21
2023/07/12 05:12:11;;;;;;;;;;;;;;;;;;2197900;59;2713;-22
2023/07/12 05:14:41;;;;;;;;;;;;;;;;;;2197984;59;3064;-22
2023/07/12 05:17:11;;;;;;;;;;;;;;;;;;2197230;67;2044;-22
2023/07/12 05:19:41;;;;;;;;;;;;;;;;;;2197863;59;2031;-23
2023/07/12 05:22:11;;;;;;;;;;;;;;;;;;2197276;59;2114;-22
2023/07/12 05:24:42;;;;;;;;;;;;;;;;;;2197675;67;1846;-23
2023/07/12 05:27:12;;;;;;;;;;;;;;;;;;2197974;67;1720;-22
2023/07/12 05:29:42;;;;;;;;;;;;;;;;;;2196871;67;2485;-22
2023/07/12 05:32:13;;;;;;;;;;;;;;;;;;2200326;67;1746;-22
2023/07/12 05:34:43;;;;;;;;;;;;;;;;;;2198158;67;1947;-22
2023/07/12 05:37:14;;;;;;;;;;;;;;;;;;2197897;67;2654;-22
2023/07/12 05:39:44;;;;;;;;;;;;;;;;;;2194000;67;1937;-22
2023/07/12 05:42:14;;;;;;;;;;;;;;;;;;2197288;67;2520;-22
2023/07/12 05:44:44;;;;;;;;;;;;;;;;;;2196799;67;1788;-21
2023/07/12 05:47:15;;;;;;;;;;;;;;;;;;2197898;59;1965;-22
2023/07/12 05:49:46;;;;;;;;;;;;;;;;;;2198128;59;2205;-22
2023/07/12 05:52:16;;;;;;;;;;;;;;;;;;2194193;67;1794;-22
2023/07/12 05:54:46;;;;;;;;;;;;;;;;;;2197930;59;1743;-22
2023/07/12 05:57:16;;;;;;;;;;;;;;;;;;2197523;59;1730;-22
2023/07/12 05:59:46;;;;;;;;;;;;;;;;;;2197612;59;2016;-22
2023/07/12 06:02:17;;;;;;;;;;;;;;;;;;2197528;67;2379;-22
2023/07/12 06:04:47;;;;;;;;;;;;;;;;;;2197395;59;1726;-22
2023/07/12 06:07:17;;;;;;;;;;;;;;;;;;2196692;67;1930;-22
2023/07/12 06:09:47;;;;;;;;;;;;;;;;;;2197680;67;1727;-21
2023/07/12 06:12:18;;;;;;;;;;;;;;;;;;2197511;59;2432;-22
2023/07/12 06:14:48;;;;;;;;;;;;;;;;;;2197729;67;2491;-22
2023/07/12 06:17:18;;;;;;;;;;;;;;;;;;2197712;67;1946;-22
2023/07/12 06:19:48;;;;;;;;;;;;;;;;;;2197385;67;3219;-22
2023/07/12 06:22:19;;;;;;;;;;;;;;;;;;2197184;67;1758;-22
2023/07/12 06:24:49;;;;;;;;;;;;;;;;;;2194395;67;1890;-22
2023/07/12 06:27:22;;;;;;;;;;;;;;;;;;2197460;67;2353;-23
2023/07/12 06:29:52;;;;;;;;;;;;;;;;;;2198037;59;1760;-23
2023/07/12 06:32:22;;;;;;;;;;;;;;;;;;2196617;67;2030;-23
2023/07/12 06:34:53;;;;;;;;;;;;;;;;;;2197654;67;2403;-22
2023/07/12 06:37:23;;;;;;;;;;;;;;;;;;2197342;67;1800;-23
2023/07/12 06:39:53;;;;;;;;;;;;;;;;;;2200492;67;2094;-23
2023/07/12 06:42:25;;;;;;;;;;;;;;;;;;2197020;67;2311;-23
2023/07/12 06:44:55;;;;;;;;;;;;;;;;;;2197374;59;2303;-23
2023/07/12 06:47:25;;;;;;;;;;;;;;;;;;2196201;59;2169;-22
2023/07/12 06:49:57;;;;;;;;;;;;;;;;;;2197428;59;1902;-22
2023/07/12 06:52:27;;;;;;;;;;;;;;;;;;2196961;67;2462;-23
2023/07/12 06:54:57;;;;;;;;;;;;;;;;;;2196958;67;2595;-24
2023/07/12 06:57:27;;;;;;;;;;;;;;;;;;2197123;59;2493;-22
2023/07/12 06:59:58;;;;;;;;;;;;;;;;;;2196412;59;2253;-23
2023/07/12 07:02:28;;;;;;;;;;;;;;;;;;2197592;60;3442;-22
2023/07/12 07:04:58;;;;;;;;;;;;;;;;;;2196984;59;2176;-23
2023/07/12 07:07:28;;;;;;;;;;;;;;;;;;2197770;67;2009;-22
2023/07/12 07:09:59;;;;;;;;;;;;;;;;;;2197741;67;1932;-24
2023/07/12 07:12:29;;;;;;;;;;;;;;;;;;2196596;59;2426;-22
2023/07/12 07:14:59;;;;;;;;;;;;;;;;;;2198420;67;1999;-23
2023/07/12 07:17:30;;;;;;;;;;;;;;;;;;2197194;67;1821;-22
2023/07/12 07:20:00;;;;;;;;;;;;;;;;;;2197479;59;2236;-23
2023/07/12 07:22:30;;;;;;;;;;;;;;;;;;2197498;59;2201;-22
2023/07/12 07:25:00;;;;;;;;;;;;;;;;;;2196888;59;1858;-23
2023/07/12 07:27:30;;;;;;;;;;;;;;;;;;2193314;59;2359;-22
2023/07/12 07:30:01;;;;;;;;;;;;;;;;;;2197343;59;1962;-22
2023/07/12 07:32:32;;;;;;;;;;;;;;;;;;2197464;59;1695;-21
2023/07/12 07:35:03;;;;;;;;;;;;;;;;;;2197633;67;1421;-22
2023/07/12 07:37:34;;;;;;;;;;;;;;;;;;2197650;67;1336;-21
2023/07/12 07:40:04;;;;;;;;;;;;;;;;;;2197981;67;1932;-23
2023/07/12 07:42:35;;;;;;;;;;;;;;;;;;2197511;67;2062;-22
2023/07/12 07:45:05;;;;;;;;;;;;;;;;;;2197618;59;2154;-23
2023/07/12 07:47:36;;;;;;;;;;;;;;;;;;2197131;67;1844;-22
2023/07/12 07:50:06;;;;;;;;;;;;;;;;;;2197077;59;1520;-22
2023/07/12 07:52:37;;;;;;;;;;;;;;;;;;2197011;67;1730;-22
2023/07/12 07:55:08;;;;;;;;;;;;;;;;;;2197705;59;2268;-23
2023/07/12 07:57:38;;;;;;;;;;;;;;;;;;2198197;67;1787;-21
2023/07/12 08:00:10;;;;;;;;;;;;;;;;;;2197646;59;1932;-22
2023/07/12 08:02:44;;;;;;;;;;;;;;;;;;2198475;59;1975;-23
2023/07/12 08:05:17;;;;;;;;;;;;;;;;;;2196970;59;2106;-21
2023/07/12 08:07:48;;;;;;;;;;;;;;;;;;2200479;67;1350;-21
2023/07/12 08:10:18;;;;;;;;;;;;;;;;;;2197588;59;1343;-21
2023/07/12 08:12:48;;;;;;;;;;;;;;;;;;2198343;59;1534;-22
2023/07/12 08:15:19;;;;;;;;;;;;;;;;;;2199362;59;1688;-21
2023/07/12 08:17:49;;;;;;;;;;;;;;;;;;2197811;67;1700;-21
2023/07/12 08:20:20;;;;;;;;;;;;;;;;;;2198125;67;2065;-21
2023/07/12 08:22:51;;;;;;;;;;;;;;;;;;2198003;67;2297;-21
2023/07/12 08:25:21;;;;;;;;;;;;;;;;;;2198895;59;2229;-22
2023/07/12 08:27:51;;;;;;;;;;;;;;;;;;2198126;67;1498;-22
2023/07/12 08:30:21;;;;;;;;;;;;;;;;;;2197988;67;2017;-21
2023/07/12 08:32:52;;;;;;;;;;;;;;;;;;2196523;59;1600;-21
2023/07/12 08:35:22;;;;;;;;;;;;;;;;;;2197847;67;1555;-22
2023/07/12 08:37:55;;;;;;;;;;;;;;;;;;2198610;67;1789;-22
2023/07/12 08:40:26;;;;;;;;;;;;;;;;;;2199085;67;1940;-20
2023/07/12 08:42:58;;;;;;;;;;;;;;;;;;2194558;59;2982;-22
2023/07/12 08:45:30;;;;;;;;;;;;;;;;;;2198246;59;2449;-22
2023/07/12 08:48:01;;;;;;;;;;;;;;;;;;2203747;54;2092;-20
2023/07/12 08:50:38;;;;;;;;;;;;;;;;;;2195914;67;1838;-20
2023/07/12 08:53:10;;;;;;;;;;;;;;;;;;2196478;67;2042;-20
2023/07/12 08:55:41;;;;;;;;;;;;;;;;;;2198046;59;1785;-20
2023/07/12 08:58:21;;;;;;;;;;;;;;;;;;2199095;67;2448;-20
2023/07/12 09:01:03;;;;;;;;;;;;;;;;;;2200159;59;1944;-20
2023/07/12 09:03:33;;;;;;;;;;;;;;;;;;2200879;59;2247;-20
2023/07/12 09:06:10;;;;;;;;;;;;;;;;;;2201803;67;2401;-20
2023/07/12 09:08:43;;;;;;;;;;;;;;;;;;2199692;59;2268;-20
2023/07/12 09:11:15;;;;;;;;;;;;;;;;;;2200034;59;2219;-20
2023/07/12 09:13:51;;;;;;;;;;;;;;;;;;2201573;59;2121;-20
2023/07/12 09:16:28;;;;;;;;;;;;;;;;;;2201413;67;2423;-20
2023/07/12 09:19:00;;;;;;;;;;;;;;;;;;2201841;59;2406;-20
2023/07/12 09:21:36;;;;;;;;;;;;;;;;;;2202277;59;2816;-20
2023/07/12 09:24:14;;;;;;;;;;;;;;;;;;2201354;67;1641;-20
2023/07/12 09:26:45;;;;;;;;;;;;;;;;;;2199334;67;1819;-20
2023/07/12 09:29:22;;;;;;;;;;;;;;;;;;2201000;67;1905;-20
2023/07/12 09:31:57;;;;;;;;;;;;;;;;;;2200625;67;2673;-20
2023/07/12 09:34:35;;;;;;;;;;;;;;;;;;2201469;67;1806;-20
2023/07/12 09:37:13;;;;;;;;;;;;;;;;;;2200798;59;2438;-20
2023/07/12 09:40:03;;;;;;;;;;;;;;;;;;2200853;59;1956;-20
2023/07/12 09:42:33;;;;;;;;;;;;;;;;;;2200305;67;1905;-20
2023/07/12 09:45:05;;;;;;;;;;;;;;;;;;2196658;59;2799;-21
2023/07/12 09:47:48;;;;;;;;;;;;;;;;;;2196343;59;2279;-20
2023/07/12 09:50:18;;;;;;;;;;;;;;;;;;2201406;59;2388;-20
2023/07/12 09:53:03;;;;;;;;;;;;;;;;;;2197706;67;1558;-21
2023/07/12 09:55:51;;;;;;;;;;;;;;;;;;2201116;59;1735;-20
2023/07/12 09:58:21;;;;;;;;;;;;;;;;;;2201056;67;1761;-21
2023/07/12 10:01:26;;;;;;;;;;;;;;;;;;2200646;59;2181;-21
2023/07/12 10:04:04;;;;;;;;;;;;;;;;;;2191767;59;2452;-20
2023/07/12 10:06:40;;;;;;;;;;;;;;;;;;2200510;63;2102;-20
2023/07/12 10:09:14;;;;;;;;;;;;;;;;;;2200677;67;2021;-21
2023/07/12 10:11:54;;;;;;;;;;;;;;;;;;2200555;59;1726;-20
2023/07/12 10:14:30;;;;;;;;;;;;;;;;;;2199309;59;2172;-21
2023/07/12 10:17:00;;;;;;;;;;;;;;;;;;2200462;67;2485;-21
2023/07/12 10:19:37;;;;;;;;;;;;;;;;;;2197485;67;1936;-21
2023/07/12 10:22:22;;;;;;;;;;;;;;;;;;2200749;67;1732;-21
2023/07/12 10:24:52;;;;;;;;;;;;;;;;;;2194445;59;1675;-21
2023/07/12 10:27:25;;;;;;;;;;;;;;;;;;2200869;59;1879;-21
2023/07/12 10:29:59;;;;;;;;;;;;;;;;;;2200548;67;1827;-20
2023/07/12 10:32:34;;;;;;;;;;;;;;;;;;2201603;67;1707;-20
2023/07/12 10:35:05;;;;;;;;;;;;;;;;;;2201690;60;2067;-22
2023/07/12 10:38:04;;;;;;;;;;;;;;;;;;2197931;67;1885;-22
2023/07/12 10:40:43;;;;;;;;;;;;;;;;;;2198074;67;2016;-22
2023/07/12 10:43:17;;;;;;;;;;;;;;;;;;2200524;67;2341;-22
2023/07/12 10:45:50;;;;;;;;;;;;;;;;;;2200031;59;2395;-22
2023/07/12 10:48:26;;;;;;;;;;;;;;;;;;2201500;59;1814;-22
2023/07/12 10:51:15;;;;;;;;;;;;;;;;;;2201190;67;1761;-22
2023/07/12 10:53:50;;;;;;;;;;;;;;;;;;2201647;59;1960;-22
2023/07/12 10:56:24;;;;;;;;;;;;;;;;;;2201164;59;1728;-22
2023/07/12 10:58:56;;;;;;;;;;;;;;;;;;2201086;59;2092;-22
2023/07/12 11:01:35;;;;;;;;;;;;;;;;;;2197814;67;2000;-22
2023/07/12 11:04:07;;;;;;;;;;;;;;;;;;2200480;59;2293;-22
2023/07/12 11:06:55;;;;;;;;;;;;;;;;;;2201536;67;1628;-22
2023/07/12 11:09:46;;;;;;;;;;;;;;;;;;2201004;67;2325;-22
2023/07/12 11:12:31;;;;;;;;;;;;;;;;;;2200967;59;2151;-22
2023/07/12 11:15:21;;;;;;;;;;;;;;;;;;2200492;67;1995;-22
2023/07/12 11:18:00;;;;;;;;;;;;;;;;;;2201150;60;2090;-22
2023/07/12 11:20:51;;;;;;;;;;;;;;;;;;2201068;59;1947;-22
2023/07/12 11:23:24;;;;;;;;;;;;;;;;;;2197028;59;2019;-22
2023/07/12 11:26:01;;;;;;;;;;;;;;;;;;2200790;59;2366;-22
2023/07/12 11:28:45;;;;;;;;;;;;;;;;;;2199264;59;2187;-22
2023/07/12 11:31:17;;;;;;;;;;;;;;;;;;2201850;67;1778;-22
2023/07/12 11:33:50;;;;;;;;;;;;;;;;;;2201910;59;2279;-22
2023/07/12 11:36:22;;;;;;;;;;;;;;;;;;2202602;59;1444;-22
2023/07/12 11:38:53;;;;;;;;;;;;;;;;;;2201107;59;2369;-22
2023/07/12 11:41:25;;;;;;;;;;;;;;;;;;2201081;59;2244;-22
2023/07/12 11:43:59;;;;;;;;;;;;;;;;;;2202412;67;1638;-22
2023/07/12 11:46:33;;;;;;;;;;;;;;;;;;2201557;59;2453;-22
2023/07/12 11:49:11;;;;;;;;;;;;;;;;;;2197142;59;2603;-22
2023/07/12 11:51:42;;;;;;;;;;;;;;;;;;2201638;59;2544;-22
2023/07/12 11:54:23;;;;;;;;;;;;;;;;;;2196407;59;2235;-22
2023/07/12 11:56:58;;;;;;;;;;;;;;;;;;2201184;59;2372;-22
2023/07/12 11:59:36;;;;;;;;;;;;;;;;;;2201877;59;2257;-22
2023/07/12 12:02:24;;;;;;;;;;;;;;;;;;2197099;59;3637;-22
2023/07/12 12:04:59;;;;;;;;;;;;;;;;;;2200816;59;2331;-22
2023/07/12 12:07:37;;;;;;;;;;;;;;;;;;2202125;67;1978;-22
2023/07/12 12:10:18;;;;;;;;;;;;;;;;;;2201787;59;2135;-22
2023/07/12 12:12:49;;;;;;;;;;;;;;;;;;2201929;59;2798;-21
2023/07/12 12:15:21;;;;;;;;;;;;;;;;;;2197147;59;2130;-21
2023/07/12 12:17:53;;;;;;;;;;;;;;;;;;2201648;67;1484;-22
2023/07/12 12:20:24;;;;;;;;;;;;;;;;;;2202107;59;2109;-23
2023/07/12 12:22:56;;;;;;;;;;;;;;;;;;2201995;67;1289;-23
2023/07/12 12:25:29;;;;;;;;;;;;;;;;;;2201607;59;2142;-24
2023/07/12 12:28:03;;;;;;;;;;;;;;;;;;2197806;59;2486;-24
2023/07/12 12:30:34;;;;;;;;;;;;;;;;;;2202377;67;1902;-24
2023/07/12 12:33:07;;;;;;;;;;;;;;;;;;2201901;59;2130;-24
2023/07/12 12:35:47;;;;;;;;;;;;;;;;;;2202720;59;1700;-24
2023/07/12 12:38:19;;;;;;;;;;;;;;;;;;2201143;59;2124;-26
2023/07/12 12:40:52;;;;;;;;;;;;;;;;;;2197924;67;1924;-26
2023/07/12 12:43:26;;;;;;;;;;;;;;;;;;2201061;59;2411;-26
2023/07/12 12:45:57;;;;;;;;;;;;;;;;;;2197259;59;2691;-26
2023/07/12 12:48:27;;;;;;;;;;;;;;;;;;2199854;59;2341;-25
2023/07/12 12:50:59;;;;;;;;;;;;;;;;;;2201212;59;1791;-25
2023/07/12 12:53:29;;;;;;;;;;;;;;;;;;2201575;59;2093;-23
2023/07/12 12:55:59;;;;;;;;;;;;;;;;;;2201048;59;1738;-23
2023/07/12 12:58:29;;;;;;;;;;;;;;;;;;2201190;67;1771;-23
2023/07/12 13:01:00;;;;;;;;;;;;;;;;;;2200680;59;2781;-23
2023/07/12 13:03:30;;;;;;;;;;;;;;;;;;2201436;59;1458;-23
2023/07/12 13:06:00;;;;;;;;;;;;;;;;;;2200954;59;2015;-23
2023/07/12 13:08:31;;;;;;;;;;;;;;;;;;2199412;59;3650;-23
2023/07/12 13:11:04;;;;;;;;;;;;;;;;;;2200779;59;2115;-23
2023/07/12 13:13:34;;;;;;;;;;;;;;;;;;2201352;59;2189;-23
2023/07/12 13:16:04;;;;;;;;;;;;;;;;;;2200829;59;2019;-23
2023/07/12 13:18:34;;;;;;;;;;;;;;;;;;2201224;59;2061;-23
2023/07/12 13:21:05;;;;;;;;;;;;;;;;;;2201324;59;2583;-23
2023/07/12 13:23:35;;;;;;;;;;;;;;;;;;2201526;59;2817;-23
2023/07/12 13:26:12;;;;;;;;;;;;;;;;;;2197276;59;2043;-23
2023/07/12 13:28:43;;;;;;;;;;;;;;;;;;2201181;59;2223;-23
2023/07/12 13:31:15;;;;;;;;;;;;;;;;;;2200744;67;1776;-23
2023/07/12 13:33:46;;;;;;;;;;;;;;;;;;2200906;59;2070;-23
2023/07/12 13:36:30;;;;;;;;;;;;;;;;;;2201626;67;1737;-23
2023/07/12 13:39:21;;;;;;;;;;;;;;;;;;2201371;60;2159;-23
2023/07/12 13:41:52;;;;;;;;;;;;;;;;;;2201345;59;1940;-23
2023/07/12 13:44:22;;;;;;;;;;;;;;;;;;2200915;59;2711;-23
2023/07/12 13:46:53;;;;;;;;;;;;;;;;;;2201168;59;2644;-22
2023/07/12 13:49:23;;;;;;;;;;;;;;;;;;2199381;59;2492;-22
2023/07/12 13:51:53;;;;;;;;;;;;;;;;;;2197427;59;1807;-22
2023/07/12 13:54:23;;;;;;;;;;;;;;;;;;2197328;59;2322;-22
2023/07/12 13:56:54;;;;;;;;;;;;;;;;;;2200973;59;1857;-22
2023/07/12 13:59:24;;;;;;;;;;;;;;;;;;2201124;59;2078;-22
2023/07/12 14:01:54;;;;;;;;;;;;;;;;;;2201229;59;2169;-23
2023/07/12 14:04:24;;;;;;;;;;;;;;;;;;2200674;59;1960;-22
2023/07/12 14:06:54;;;;;;;;;;;;;;;;;;2201017;59;2589;-22
2023/07/12 14:09:26;;;;;;;;;;;;;;;;;;2201255;59;1871;-22
2023/07/12 14:11:56;;;;;;;;;;;;;;;;;;2201020;59;1974;-22
2023/07/12 14:14:27;;;;;;;;;;;;;;;;;;2200318;59;2189;-23
2023/07/12 14:16:57;;;;;;;;;;;;;;;;;;2201005;67;2073;-22
2023/07/12 14:19:27;;;;;;;;;;;;;;;;;;2201099;67;2494;-23
2023/07/12 14:21:58;;;;;;;;;;;;;;;;;;2201099;59;2266;-23
2023/07/12 14:24:28;;;;;;;;;;;;;;;;;;2201534;59;2207;-23
2023/07/12 14:26:58;;;;;;;;;;;;;;;;;;2200909;67;2986;-23
2023/07/12 14:29:28;;;;;;;;;;;;;;;;;;2196483;59;2333;-23
2023/07/12 14:31:58;;;;;;;;;;;;;;;;;;2201158;67;2522;-23
2023/07/12 14:34:29;;;;;;;;;;;;;;;;;;2197098;67;1737;-23
2023/07/12 14:36:59;;;;;;;;;;;;;;;;;;2200687;63;2450;-22
2023/07/12 14:39:29;;;;;;;;;;;;;;;;;;2201902;67;1988;-22
2023/07/12 14:41:59;;;;;;;;;;;;;;;;;;2201086;59;2088;-22
2023/07/12 14:44:30;;;;;;;;;;;;;;;;;;2201598;67;1870;-22
2023/07/12 14:47:00;;;;;;;;;;;;;;;;;;2201293;59;1820;-22
2023/07/12 14:52:15;;;;;;;;;;;;;;;;;;2200955;59;2177;-20
2023/07/12 14:54:45;;;;;;;;;;;;;;;;;;2204978;59;2102;-20
2023/07/12 14:57:16;;;;;;;;;;;;;;;;;;2204455;59;1954;-21
2023/07/12 14:59:48;;;;;;;;;;;;;;;;;;2204468;59;2701;-20
2023/07/12 15:02:18;;;;;;;;;;;;;;;;;;2204779;67;1741;-20
2023/07/12 15:04:49;;;;;;;;;;;;;;;;;;2204382;59;1738;-20
2023/07/12 15:07:24;;;;;;;;;;;;;;;;;;2205359;59;2418;-20
2023/07/12 15:09:56;;;;;;;;;;;;;;;;;;2204529;59;1653;-20
2023/07/12 15:12:30;;;;;;;;;;;;;;;;;;2201572;59;1911;-20
2023/07/12 15:15:01;;;;;;;;;;;;;;;;;;2203997;59;2093;-20
2023/07/12 15:17:31;;;;;;;;;;;;;;;;;;2205048;67;1460;-20
2023/07/12 15:20:03;;;;;;;;;;;;;;;;;;2204806;67;2070;-20
2023/07/12 15:22:33;;;;;;;;;;;;;;;;;;2204947;59;2233;-20
2023/07/12 15:25:22;;;;;;;;;;;;;;;;;;2204033;59;1969;-21
2023/07/12 15:27:53;;;;;;;;;;;;;;;;;;2204726;67;1961;-21
2023/07/12 15:30:26;;;;;;;;;;;;;;;;;;2204374;67;2251;-20
2023/07/12 15:32:57;;;;;;;;;;;;;;;;;;2203595;59;2056;-20
2023/07/12 15:35:27;;;;;;;;;;;;;;;;;;2204524;60;2158;-20
2023/07/12 15:38:01;;;;;;;;;;;;;;;;;;2203743;59;2226;-20
2023/07/12 15:40:50;;;;;;;;;;;;;;;;;;2204428;59;2077;-21
2023/07/12 15:43:31;;;;;;;;;;;;;;;;;;2204549;59;2656;-20
2023/07/12 15:46:01;;;;;;;;;;;;;;;;;;2204783;59;2251;-20
2023/07/12 15:48:32;;;;;;;;;;;;;;;;;;2205921;67;1283;-21
2023/07/12 15:51:18;;;;;;;;;;;;;;;;;;2204072;59;3063;-20
2023/07/12 15:53:50;;;;;;;;;;;;;;;;;;2205253;67;1960;-20
2023/07/12 15:56:30;;;;;;;;;;;;;;;;;;2204096;59;2313;-20
2023/07/12 15:59:00;;;;;;;;;;;;;;;;;;2203287;59;2621;-20
2023/07/12 16:01:31;;;;;;;;;;;;;;;;;;2202063;59;2104;-21
2023/07/12 16:04:02;;;;;;;;;;;;;;;;;;2200250;59;2093;-20
2023/07/12 16:06:32;;;;;;;;;;;;;;;;;;2204893;59;2525;-20
2023/07/12 16:09:03;;;;;;;;;;;;;;;;;;2204462;67;2668;-20
2023/07/12 16:11:42;;;;;;;;;;;;;;;;;;2204230;59;3346;-20
2023/07/12 16:14:18;;;;;;;;;;;;;;;;;;2202893;59;2043;-20
2023/07/12 16:16:49;;;;;;;;;;;;;;;;;;2204379;59;3169;-20
2023/07/12 16:19:19;;;;;;;;;;;;;;;;;;2204712;67;2321;-20
2023/07/12 16:21:49;;;;;;;;;;;;;;;;;;2204589;59;2198;-20
2023/07/12 16:24:19;;;;;;;;;;;;;;;;;;2204824;59;1447;-20
2023/07/12 16:26:50;;;;;;;;;;;;;;;;;;2206364;67;1745;-20
2023/07/12 16:29:20;;;;;;;;;;;;;;;;;;2204866;59;2687;-20
2023/07/12 16:31:52;;;;;;;;;;;;;;;;;;2204768;67;1817;-20
2023/07/12 16:34:25;;;;;;;;;;;;;;;;;;2205000;59;2018;-21
2023/07/12 16:36:57;;;;;;;;;;;;;;;;;;2202364;67;2443;-21
2023/07/12 16:39:27;;;;;;;;;;;;;;;;;;2204933;59;2281;-21
2023/07/12 16:41:58;;;;;;;;;;;;;;;;;;2205124;67;2141;-21
2023/07/12 16:44:28;;;;;;;;;;;;;;;;;;2204740;59;2833;-21
2023/07/12 16:46:58;;;;;;;;;;;;;;;;;;2204503;59;2056;-22
2023/07/12 16:49:28;;;;;;;;;;;;;;;;;;2205604;59;2317;-21
2023/07/12 16:52:00;;;;;;;;;;;;;;;;;;2204865;67;1700;-21
2023/07/12 16:54:31;;;;;;;;;;;;;;;;;;2205874;67;1756;-22
2023/07/12 16:57:02;;;;;;;;;;;;;;;;;;2203483;59;2341;-23
2023/07/12 16:59:33;;;;;;;;;;;;;;;;;;2204580;59;2382;-22
2023/07/12 17:02:10;;;;;;;;;;;;;;;;;;2204029;59;2632;-23
2023/07/12 17:04:40;;;;;;;;;;;;;;;;;;2205130;59;2006;-23
2023/07/12 17:07:11;;;;;;;;;;;;;;;;;;2204290;59;2156;-23
2023/07/12 17:09:41;;;;;;;;;;;;;;;;;;2205808;59;2540;-22
2023/07/12 17:12:34;;;;;;;;;;;;;;;;;;2203423;59;3294;-22
2023/07/12 17:15:05;;;;;;;;;;;;;;;;;;2204406;59;1755;-23
2023/07/12 17:17:35;;;;;;;;;;;;;;;;;;2204809;67;2451;-22
2023/07/12 17:20:06;;;;;;;;;;;;;;;;;;2203390;67;2682;-22
2023/07/12 17:22:37;;;;;;;;;;;;;;;;;;2204201;59;1769;-23
2023/07/12 17:25:10;;;;;;;;;;;;;;;;;;2203873;67;1831;-22
2023/07/12 17:27:41;;;;;;;;;;;;;;;;;;2204697;59;2276;-23
2023/07/12 17:30:12;;;;;;;;;;;;;;;;;;2203812;67;1908;-23
2023/07/12 17:32:43;;;;;;;;;;;;;;;;;;2201786;59;2053;-22
2023/07/12 17:35:13;;;;;;;;;;;;;;;;;;2204495;59;1768;-22
2023/07/12 17:37:44;;;;;;;;;;;;;;;;;;2204657;59;2130;-22
2023/07/12 17:40:14;;;;;;;;;;;;;;;;;;2203906;59;1924;-22
2023/07/12 17:42:45;;;;;;;;;;;;;;;;;;2204786;59;2179;-25